createdAt,value
2022-08-05T00:00:16.235Z,7.85
2022-08-05T00:02:50.935Z,8.23
2022-08-05T00:05:27.128Z,7.45
2022-08-05T00:08:30.861Z,8.00
2022-08-05T00:11:01.223Z,11.50
2022-08-05T00:13:38.841Z,7.07
2022-08-05T00:16:12.510Z,10.07
2022-08-05T00:18:44.247Z,12.57
2022-08-05T00:21:14.409Z,6.57
2022-08-05T00:23:45.901Z,6.15
2022-08-05T00:26:22.052Z,9.43
2022-08-05T00:28:49.761Z,6.18
2022-08-05T00:31:54.065Z,9.27
2022-08-05T00:34:54.817Z,12.18
2022-08-05T00:37:11.982Z,7.93
2022-08-05T00:39:57.406Z,8.25
2022-08-05T00:42:37.215Z,7.60
2022-08-05T00:45:08.535Z,7.47
2022-08-05T00:47:53.524Z,6.70
2022-08-05T00:50:25.791Z,7.88
2022-08-05T00:52:55.286Z,9.60
2022-08-05T00:55:23.316Z,6.82
2022-08-05T00:58:11.241Z,7.95
2022-08-05T01:00:39.651Z,8.52
2022-08-05T01:03:08.074Z,8.15
2022-08-05T01:05:35.474Z,7.85
2022-08-05T01:08:30.789Z,8.23
2022-08-05T01:11:00.927Z,10.80
2022-08-05T01:13:59.785Z,6.13
2022-08-05T01:16:35.597Z,6.97
2022-08-05T01:19:46.264Z,9.02
2022-08-05T01:22:31.844Z,9.45
2022-08-05T01:25:41.891Z,8.00
2022-08-05T01:28:33.008Z,8.93
2022-08-05T01:31:25.231Z,5.78
2022-08-05T01:34:09.366Z,8.88
2022-08-05T01:36:53.779Z,8.00
2022-08-05T01:39:45.883Z,7.30
2022-08-05T01:42:13.940Z,8.95
2022-08-05T01:44:45.717Z,7.97
2022-08-05T01:47:22.184Z,7.00
2022-08-05T01:50:01.923Z,8.85
2022-08-05T01:52:32.642Z,8.63
2022-08-05T01:55:04.430Z,7.47
2022-08-05T01:58:10.466Z,9.10
2022-08-05T02:00:30.676Z,7.80
2022-08-05T02:03:16.302Z,10.10
2022-08-05T02:05:59.657Z,5.95
2022-08-05T02:08:30.861Z,8.55
2022-08-05T02:11:12.728Z,6.38
2022-08-05T02:13:53.895Z,6.03
2022-08-05T02:16:36.848Z,6.63
2022-08-05T02:19:14.296Z,6.05
2022-08-05T02:21:49.251Z,5.15
2022-08-05T02:24:23.336Z,7.53
2022-08-05T02:26:58.238Z,8.45
2022-08-05T02:29:58.637Z,8.00
2022-08-05T02:32:29.168Z,6.57
2022-08-05T02:35:09.659Z,6.28
2022-08-05T02:37:47.828Z,7.47
2022-08-05T02:40:22.806Z,7.70
2022-08-05T02:42:54.034Z,9.82
2022-08-05T02:45:25.241Z,8.02
2022-08-05T02:48:12.129Z,7.85
2022-08-05T02:50:43.862Z,6.20
2022-08-05T02:53:16.120Z,7.43
2022-08-05T02:55:59.996Z,7.90
2022-08-05T02:58:30.074Z,5.78
2022-08-05T03:01:04.917Z,6.70
2022-08-05T03:03:33.739Z,9.45
2022-08-05T03:06:53.645Z,7.55
2022-08-05T03:08:52.140Z,5.65
2022-08-05T03:11:56.068Z,7.13
2022-08-05T03:14:08.415Z,6.93
2022-08-05T03:16:36.033Z,8.15
2022-08-05T03:19:17.098Z,6.72
2022-08-05T03:21:51.515Z,6.53
2022-08-05T03:24:23.666Z,7.32
2022-08-05T03:26:56.970Z,7.15
2022-08-05T03:29:46.018Z,7.22
2022-08-05T03:32:14.416Z,7.97
2022-08-05T03:34:50.581Z,8.57
2022-08-05T03:37:19.593Z,7.18
2022-08-05T03:39:59.062Z,7.07
2022-08-05T03:42:28.878Z,7.70
2022-08-05T03:44:57.065Z,9.52
2022-08-05T03:47:24.582Z,8.55
2022-08-05T03:49:52.556Z,8.63
2022-08-05T03:52:38.780Z,9.07
2022-08-05T03:56:05.885Z,9.52
2022-08-05T03:58:30.478Z,9.00
2022-08-05T04:01:00.138Z,10.50
2022-08-05T04:03:29.383Z,9.48
2022-08-05T04:05:59.240Z,7.70
2022-08-05T04:08:36.183Z,10.50
2022-08-05T04:11:08.419Z,9.77
2022-08-05T04:13:49.990Z,8.05
2022-08-05T04:16:25.539Z,7.90
2022-08-05T04:19:00.212Z,7.95
2022-08-05T04:22:08.931Z,8.10
2022-08-05T04:24:19.254Z,8.57
2022-08-05T04:26:50.219Z,8.90
2022-08-05T04:29:17.316Z,11.80
2022-08-05T04:31:44.323Z,12.85
2022-08-05T04:34:18.208Z,9.93
2022-08-05T04:36:50.135Z,7.32
2022-08-05T04:39:21.710Z,8.68
2022-08-05T04:41:50.933Z,10.18
2022-08-05T04:44:21.553Z,8.80
2022-08-05T04:46:58.586Z,10.75
2022-08-05T04:49:38.597Z,10.00
2022-08-05T04:52:14.114Z,7.15
2022-08-05T04:54:42.513Z,10.05
2022-08-05T04:57:09.530Z,10.13
2022-08-05T04:59:38.878Z,9.93
2022-08-05T05:02:36.378Z,7.82
2022-08-05T05:05:02.268Z,9.27
2022-08-05T05:07:35.473Z,7.60
2022-08-05T05:10:06.241Z,9.68
2022-08-05T05:12:33.592Z,10.20
2022-08-05T05:15:05.142Z,12.40
2022-08-05T05:17:55.631Z,19.35
2022-08-05T05:20:28.267Z,14.02
2022-08-05T05:22:57.653Z,12.85
2022-08-05T05:25:40.296Z,9.65
2022-08-05T05:28:09.278Z,9.38
2022-08-05T05:30:37.481Z,7.95
2022-08-05T05:33:16.031Z,11.07
2022-08-05T05:35:46.872Z,10.20
2022-08-05T05:38:22.635Z,9.73
2022-08-05T05:40:57.575Z,8.85
2022-08-05T05:43:54.463Z,11.48
2022-08-05T05:46:17.258Z,11.18
2022-08-05T05:48:48.352Z,9.53
2022-08-05T05:51:24.050Z,10.52
2022-08-05T05:53:57.567Z,9.98
2022-08-05T05:56:32.217Z,8.43
2022-08-05T05:59:03.096Z,10.93
2022-08-05T06:01:37.741Z,10.20
2022-08-05T06:06:34.975Z,9.70
2022-08-05T06:09:06.000Z,8.52
2022-08-05T06:11:35.168Z,12.23
2022-08-05T06:14:06.710Z,10.75
2022-08-05T06:16:37.324Z,13.38
2022-08-05T06:19:07.345Z,12.65
2022-08-05T06:21:38.336Z,10.15
2022-08-05T06:24:12.071Z,11.10
2022-08-05T06:26:51.883Z,10.43
2022-08-05T06:29:46.866Z,10.25
2022-08-05T06:32:21.032Z,10.90
2022-08-05T06:34:56.355Z,9.85
2022-08-05T06:37:39.384Z,8.80
2022-08-05T06:40:13.885Z,13.27
2022-08-05T06:42:45.419Z,9.07
2022-08-05T06:45:21.247Z,12.60
2022-08-05T06:48:36.216Z,10.18
2022-08-05T06:50:47.335Z,9.32
2022-08-05T06:53:22.662Z,9.10
2022-08-05T06:55:59.702Z,9.18
2022-08-05T06:58:35.471Z,6.70
2022-08-05T07:01:05.961Z,11.18
2022-08-05T07:03:33.974Z,7.72
2022-08-05T07:06:06.212Z,7.28
2022-08-05T07:08:47.968Z,8.52
2022-08-05T07:11:22.583Z,6.95
2022-08-05T07:14:15.443Z,9.52
2022-08-05T07:17:56.321Z,7.78
2022-08-05T07:22:30.092Z,6.25
2022-08-05T07:24:59.100Z,9.27
2022-08-05T07:27:27.596Z,9.23
2022-08-05T07:30:22.172Z,7.43
2022-08-05T07:32:55.449Z,12.18
2022-08-05T07:36:04.526Z,7.43
2022-08-05T07:38:26.497Z,7.82
2022-08-05T07:41:04.529Z,8.65
2022-08-05T07:43:46.354Z,6.80
2022-08-05T07:46:24.315Z,5.47
2022-08-05T07:49:01.711Z,7.65
2022-08-05T07:51:41.130Z,8.40
2022-08-05T07:54:18.733Z,7.88
2022-08-05T07:57:01.414Z,9.60
2022-08-05T07:59:40.492Z,8.15
2022-08-05T08:04:49.213Z,8.35
2022-08-05T08:07:21.962Z,9.48
2022-08-05T08:09:52.511Z,8.88
2022-08-05T08:12:37.143Z,7.05
2022-08-05T08:15:15.818Z,6.43
2022-08-05T08:17:52.748Z,8.35
2022-08-05T08:21:00.312Z,7.50
2022-08-05T08:23:59.994Z,8.88
2022-08-05T08:26:02.135Z,6.65
2022-08-05T08:28:36.393Z,7.32
2022-08-05T08:31:06.469Z,7.00
2022-08-05T08:33:37.471Z,10.07
2022-08-05T08:36:39.212Z,8.43
2022-08-05T08:38:55.716Z,7.45
2022-08-05T08:41:26.117Z,7.35
2022-08-05T08:45:25.161Z,9.75
2022-08-05T08:47:04.109Z,7.30
2022-08-05T08:50:14.548Z,6.85
2022-08-05T08:52:42.315Z,8.50
2022-08-05T08:55:19.461Z,6.10
2022-08-05T08:58:06.300Z,6.68
2022-08-05T09:00:36.086Z,7.20
2022-08-05T09:03:06.748Z,7.20
2022-08-05T09:05:38.334Z,7.93
2022-08-05T09:08:26.573Z,8.05
2022-08-05T09:10:54.757Z,10.00
2022-08-05T09:13:23.581Z,7.55
2022-08-05T09:15:51.735Z,8.80
2022-08-05T09:18:18.914Z,7.93
2022-08-05T09:20:47.156Z,8.82
2022-08-05T09:23:21.926Z,7.47
2022-08-05T09:26:01.137Z,8.23
2022-08-05T09:28:33.559Z,6.60
2022-08-05T09:31:22.321Z,8.23
2022-08-05T09:33:58.405Z,9.63
2022-08-05T09:36:54.727Z,13.35
2022-08-05T09:39:39.157Z,6.97
2022-08-05T09:42:17.636Z,11.07
2022-08-05T09:44:56.359Z,6.38
2022-08-05T09:47:36.464Z,12.65
2022-08-05T09:50:18.229Z,12.10
2022-08-05T09:53:01.592Z,11.60
2022-08-05T09:55:56.675Z,8.95
2022-08-05T09:58:24.824Z,12.05
2022-08-05T10:01:15.405Z,11.95
2022-08-05T10:03:59.797Z,8.93
2022-08-05T10:06:27.982Z,9.95
2022-08-05T10:08:56.602Z,12.55
2022-08-05T10:11:23.907Z,10.30
2022-08-05T10:13:58.647Z,15.10
2022-08-05T10:16:37.681Z,7.82
2022-08-05T10:19:11.830Z,10.18
2022-08-05T10:21:40.209Z,14.90
2022-08-05T10:24:13.258Z,7.60
2022-08-05T10:26:49.019Z,9.80
2022-08-05T10:29:24.140Z,9.98
2022-08-05T10:32:53.998Z,11.73
2022-08-05T10:35:00.927Z,8.13
2022-08-05T10:37:37.144Z,9.23
2022-08-05T10:40:30.379Z,7.47
2022-08-05T10:43:06.717Z,8.40
2022-08-05T10:45:38.416Z,10.27
2022-08-05T10:48:52.487Z,7.93
2022-08-05T10:51:28.993Z,8.18
2022-08-05T10:54:05.960Z,9.73
2022-08-05T10:56:52.818Z,15.45
2022-08-05T11:00:03.354Z,10.40
2022-08-05T11:02:34.714Z,9.38
2022-08-05T11:05:10.368Z,8.20
2022-08-05T11:08:01.214Z,9.32
2022-08-05T11:10:33.366Z,8.50
2022-08-05T11:13:01.238Z,8.98
2022-08-05T11:15:59.074Z,11.55
2022-08-05T11:18:32.200Z,8.40
2022-08-05T11:21:02.047Z,9.80
2022-08-05T11:24:04.503Z,14.02
2022-08-05T11:26:32.614Z,9.68
2022-08-05T11:29:13.969Z,7.95
2022-08-05T11:31:56.766Z,8.32
2022-08-05T11:34:47.546Z,10.35
2022-08-05T11:38:26.165Z,7.47
2022-08-05T11:41:34.445Z,8.57
2022-08-05T11:44:05.846Z,8.32
2022-08-05T11:47:09.218Z,9.93
2022-08-05T11:49:27.990Z,7.43
2022-08-05T11:51:55.239Z,7.80
2022-08-05T11:54:33.737Z,7.32
2022-08-05T11:57:08.310Z,9.52
2022-08-05T11:59:51.308Z,8.00
2022-08-05T12:02:29.740Z,8.95
2022-08-05T12:05:06.793Z,11.15
2022-08-05T12:08:09.186Z,6.97
2022-08-05T12:10:42.829Z,11.07
2022-08-05T12:13:47.430Z,5.55
2022-08-05T12:16:15.049Z,6.20
2022-08-05T12:18:49.578Z,7.75
2022-08-05T12:21:29.794Z,5.93
2022-08-05T12:24:07.290Z,7.18
2022-08-05T12:26:39.001Z,7.75
2022-08-05T12:29:09.786Z,6.90
2022-08-05T12:31:53.731Z,8.98
2022-08-05T12:34:28.387Z,6.32
2022-08-05T12:37:03.282Z,5.57
2022-08-05T12:39:37.135Z,7.78
2022-08-05T12:42:14.397Z,6.75
2022-08-05T12:44:44.605Z,6.78
2022-08-05T12:47:13.266Z,5.43
2022-08-05T12:50:03.697Z,5.78
2022-08-05T12:52:41.748Z,7.88
2022-08-05T12:55:22.019Z,9.65
2022-08-05T12:58:48.313Z,7.40
2022-08-05T13:02:03.099Z,6.18
2022-08-05T13:03:41.776Z,6.47
2022-08-05T13:06:13.509Z,7.90
2022-08-05T13:08:40.721Z,5.70
2022-08-05T13:11:59.776Z,7.22
2022-08-05T13:14:25.104Z,5.78
2022-08-05T13:17:41.833Z,8.18
2022-08-05T13:22:40.752Z,8.20
2022-08-05T13:25:18.709Z,6.35
2022-08-05T13:27:58.901Z,8.00
2022-08-05T13:30:34.712Z,6.88
2022-08-05T13:33:04.114Z,6.85
2022-08-05T13:35:47.052Z,7.90
2022-08-05T13:38:30.927Z,5.90
2022-08-05T13:41:03.938Z,8.82
2022-08-05T13:43:45.859Z,6.20
2022-08-05T13:46:35.952Z,4.68
2022-08-05T13:49:09.825Z,6.25
2022-08-05T13:51:42.101Z,10.40
2022-08-05T13:54:16.133Z,5.55
2022-08-05T13:56:45.318Z,6.80
2022-08-05T13:59:24.794Z,6.20
2022-08-05T14:01:59.478Z,7.43
2022-08-05T14:04:52.003Z,6.18
2022-08-05T14:08:00.783Z,4.45
2022-08-05T14:10:28.521Z,6.03
2022-08-05T14:12:57.150Z,5.57
2022-08-05T14:16:08.114Z,6.13
2022-08-05T14:18:15.046Z,7.10
2022-08-05T14:20:48.926Z,8.55
2022-08-05T14:23:24.663Z,7.80
2022-08-05T14:25:58.551Z,8.68
2022-08-05T14:28:30.785Z,4.47
2022-08-05T14:30:59.540Z,5.82
2022-08-05T14:33:27.920Z,4.32
2022-08-05T14:36:21.292Z,6.03
2022-08-05T14:38:49.150Z,6.18
2022-08-05T14:41:17.789Z,5.03
2022-08-05T14:43:59.057Z,7.43
2022-08-05T14:46:31.689Z,5.88
2022-08-05T14:49:07.410Z,5.75
2022-08-05T14:51:42.878Z,5.38
2022-08-05T14:54:28.716Z,6.35
2022-08-05T14:56:58.423Z,5.95
2022-08-05T14:59:29.687Z,3.72
2022-08-05T15:02:03.373Z,3.72
2022-08-05T15:04:40.737Z,4.90
2022-08-05T15:07:10.461Z,4.00
2022-08-05T15:09:57.570Z,5.20
2022-08-05T15:12:36.876Z,5.53
2022-08-05T15:15:15.886Z,4.88
2022-08-05T15:17:45.602Z,4.53
2022-08-05T15:20:18.713Z,5.63
2022-08-05T15:22:54.017Z,4.10
2022-08-05T15:25:51.425Z,5.25
2022-08-05T15:28:13.322Z,4.30
2022-08-05T15:30:43.668Z,6.65
2022-08-05T15:33:12.900Z,5.53
2022-08-05T15:35:59.909Z,7.03
2022-08-05T15:38:33.979Z,4.82
2022-08-05T15:41:22.624Z,6.93
2022-08-05T15:43:50.949Z,4.70
2022-08-05T15:46:20.758Z,4.25
2022-08-05T15:48:52.740Z,7.05
2022-08-05T15:52:09.968Z,5.93
2022-08-05T15:54:17.082Z,7.53
2022-08-05T15:56:44.177Z,6.93
2022-08-05T15:59:22.042Z,5.88
2022-08-05T16:01:52.384Z,7.22
2022-08-05T16:04:25.598Z,5.13
2022-08-05T16:06:56.077Z,5.97
2022-08-05T16:09:24.781Z,6.93
2022-08-05T16:11:53.776Z,4.40
2022-08-05T16:14:24.692Z,6.55
2022-08-05T16:16:52.132Z,4.28
2022-08-05T16:20:02.781Z,6.75
2022-08-05T16:22:10.838Z,6.05
2022-08-05T16:24:51.218Z,6.07
2022-08-05T16:27:19.452Z,5.97
2022-08-05T16:30:08.329Z,6.18
2022-08-05T16:32:50.511Z,9.70
2022-08-05T16:35:17.863Z,5.50
2022-08-05T16:38:15.575Z,4.65
2022-08-05T16:40:32.608Z,5.65
2022-08-05T16:43:00.084Z,7.47
2022-08-05T16:46:04.818Z,5.88
2022-08-05T16:48:25.826Z,5.75
2022-08-05T16:51:00.140Z,5.07
2022-08-05T16:53:32.553Z,8.70
2022-08-05T16:56:14.364Z,5.70
2022-08-05T16:58:41.433Z,5.38
2022-08-05T17:01:10.420Z,4.40
2022-08-05T17:03:40.716Z,6.43
2022-08-05T17:06:08.402Z,5.03
2022-08-05T17:08:52.720Z,6.97
2022-08-05T17:11:25.378Z,6.25
2022-08-05T17:14:00.264Z,5.88
2022-08-05T17:16:36.615Z,7.13
2022-08-05T17:19:07.517Z,6.65
2022-08-05T17:21:37.741Z,6.65
2022-08-05T17:24:19.534Z,6.40
2022-08-05T17:26:58.832Z,5.25
2022-08-05T17:29:40.075Z,5.93
2022-08-05T17:32:11.243Z,5.25
2022-08-05T17:34:39.451Z,7.32
2022-08-05T17:37:29.401Z,6.85
2022-08-05T17:39:55.851Z,4.47
2022-08-05T17:42:28.910Z,5.25
2022-08-05T17:44:57.354Z,11.45
2022-08-05T17:47:24.515Z,6.13
2022-08-05T17:50:03.759Z,6.07
2022-08-05T17:52:52.827Z,6.53
2022-08-05T17:55:22.836Z,6.27
2022-08-05T17:58:02.420Z,4.55
2022-08-05T18:00:29.903Z,4.85
2022-08-05T18:02:57.174Z,5.97
2022-08-05T18:05:27.936Z,4.18
2022-08-05T18:07:56.743Z,4.20
2022-08-05T18:10:24.533Z,5.20
2022-08-05T18:12:52.827Z,8.60
2022-08-05T18:15:20.384Z,3.72
2022-08-05T18:17:59.229Z,7.72
2022-08-05T18:20:31.573Z,7.75
2022-08-05T18:23:11.919Z,5.63
2022-08-05T18:25:45.222Z,4.45
2022-08-05T18:28:16.163Z,5.88
2022-08-05T18:30:45.418Z,3.72
2022-08-05T18:33:22.931Z,4.22
2022-08-05T18:36:03.363Z,4.70
2022-08-05T18:38:35.937Z,5.07
2022-08-05T18:41:55.276Z,4.47
2022-08-05T18:43:52.464Z,5.70
2022-08-05T18:46:20.656Z,3.85
2022-08-05T18:48:52.650Z,5.28
2022-08-05T18:52:06.917Z,4.70
2022-08-05T18:54:31.218Z,4.47
2022-08-05T18:57:02.158Z,3.83
2022-08-05T18:59:43.707Z,4.32
2022-08-05T19:02:27.963Z,3.72
2022-08-05T19:05:02.042Z,4.80
2022-08-05T19:07:47.967Z,4.78
2022-08-05T19:10:16.788Z,4.70
2022-08-05T19:12:46.066Z,8.48
2022-08-05T19:15:45.037Z,4.10
2022-08-05T19:18:09.655Z,4.28
2022-08-05T19:20:41.681Z,3.95
2022-08-05T19:24:04.049Z,5.50
2022-08-05T19:26:01.982Z,5.85
2022-08-05T19:28:34.729Z,5.35
2022-08-05T19:31:05.738Z,5.55
2022-08-05T19:33:36.870Z,4.63
2022-08-05T19:36:08.862Z,5.60
2022-08-05T19:38:37.020Z,5.03
2022-08-05T19:41:06.699Z,4.18
2022-08-05T19:44:05.346Z,4.90
2022-08-05T19:46:29.483Z,4.70
2022-08-05T19:49:01.146Z,8.25
2022-08-05T19:52:09.305Z,6.65
2022-08-05T19:54:31.246Z,5.45
2022-08-05T19:57:09.207Z,6.53
2022-08-05T19:59:55.339Z,4.32
2022-08-05T20:02:27.988Z,6.97
2022-08-05T20:04:58.484Z,5.85
2022-08-05T20:07:46.772Z,5.85
2022-08-05T20:10:19.142Z,6.05
2022-08-05T20:12:49.256Z,6.07
2022-08-05T20:15:48.707Z,5.80
2022-08-05T20:18:10.017Z,5.88
2022-08-05T20:20:56.022Z,4.63
2022-08-05T20:23:39.929Z,5.45
2022-08-05T20:26:17.428Z,5.22
2022-08-05T20:28:48.013Z,5.00
2022-08-05T20:31:16.396Z,5.32
2022-08-05T20:33:45.100Z,7.15
2022-08-05T20:36:14.166Z,6.05
2022-08-05T20:38:53.421Z,4.63
2022-08-05T20:41:27.033Z,4.95
2022-08-05T20:43:58.712Z,5.22
2022-08-05T20:46:27.737Z,5.55
2022-08-05T20:48:54.845Z,5.63
2022-08-05T20:51:21.942Z,4.68
2022-08-05T20:53:56.809Z,6.50
2022-08-05T20:56:31.885Z,5.35
2022-08-05T20:59:11.298Z,5.22
2022-08-05T21:01:46.619Z,5.53
2022-08-05T21:04:14.237Z,5.63
2022-08-05T21:06:45.179Z,5.45
2022-08-05T21:09:14.951Z,7.28
2022-08-05T21:12:10.623Z,6.70
2022-08-05T21:14:35.294Z,6.20
2022-08-05T21:17:06.166Z,5.28
2022-08-05T21:19:46.807Z,5.72
2022-08-05T21:22:21.886Z,5.15
2022-08-05T21:24:52.648Z,5.88
2022-08-05T21:27:25.317Z,5.78
2022-08-05T21:29:58.226Z,5.22
2022-08-05T21:32:29.186Z,5.78
2022-08-05T21:35:08.497Z,4.85
2022-08-05T21:37:53.065Z,5.53
2022-08-05T21:40:24.654Z,4.03
2022-08-05T21:42:53.683Z,5.63
2022-08-05T21:45:25.027Z,4.50
2022-08-05T21:48:09.290Z,5.55
2022-08-05T21:50:36.569Z,4.72
2022-08-05T21:53:16.437Z,5.57
2022-08-05T21:56:04.427Z,5.68
2022-08-05T21:58:34.708Z,5.75
2022-08-05T22:01:05.005Z,6.30
2022-08-05T22:03:52.140Z,4.82
2022-08-05T22:06:22.880Z,3.90
2022-08-05T22:08:52.553Z,4.97
2022-08-05T22:11:34.715Z,4.22
2022-08-05T22:14:19.954Z,4.45
2022-08-05T22:16:56.013Z,4.47
2022-08-05T22:20:00.502Z,6.72
2022-08-05T22:22:14.422Z,5.20
2022-08-05T22:25:01.157Z,6.20
2022-08-05T22:28:10.911Z,5.07
2022-08-05T22:30:34.979Z,5.72
2022-08-05T22:33:03.723Z,4.90
2022-08-05T22:35:47.940Z,5.32
2022-08-05T22:40:49.452Z,4.50
2022-08-05T22:43:36.567Z,5.82
2022-08-05T22:46:11.887Z,3.10
2022-08-05T22:48:41.040Z,5.95
2022-08-05T22:51:08.411Z,4.88
2022-08-05T22:53:49.713Z,4.40
2022-08-05T22:56:17.997Z,4.60
2022-08-05T22:59:04.127Z,4.90
2022-08-05T23:02:04.529Z,6.25
2022-08-05T23:04:33.865Z,5.90
2022-08-05T23:07:01.063Z,4.13
2022-08-05T23:09:57.470Z,4.55
2022-08-05T23:12:17.816Z,5.13
2022-08-05T23:14:45.254Z,5.18
2022-08-05T23:17:34.835Z,6.00
2022-08-05T23:20:15.525Z,5.05
2022-08-05T23:22:47.742Z,6.80
2022-08-05T23:25:54.679Z,5.03
2022-08-05T23:28:06.931Z,4.45
2022-08-05T23:30:40.614Z,5.75
2022-08-05T23:33:22.345Z,7.35
2022-08-05T23:35:56.177Z,6.72
2022-08-05T23:38:26.073Z,4.63
2022-08-05T23:40:54.049Z,5.10
2022-08-05T23:43:24.951Z,3.97
2022-08-05T23:46:21.162Z,3.88
2022-08-05T23:48:59.710Z,4.45
2022-08-05T23:51:54.065Z,5.07
2022-08-05T23:54:25.517Z,4.55
2022-08-05T23:56:54.473Z,4.15
2022-08-05T23:59:27.846Z,3.72
